sensor_id;sensor_type;location;lat;lon;timestamp;P1;durP1;ratioP1;P2;durP2;ratioP2
17253;SDS011;32542;52.832;13.816;2023-02-22T00:01:02;8.93;;;4.38;;
17253;SDS011;32542;52.832;13.816;2023-02-22T00:04:19;11.13;;;4.00;;
17253;SDS011;32542;52.832;13.816;2023-02-22T00:07:23;8.40;;;4.47;;
17253;SDS011;32542;52.832;13.816;2023-02-22T00:10:26;8.50;;;4.30;;
17253;SDS011;32542;52.832;13.816;2023-02-22T00:13:29;10.88;;;4.68;;
17253;SDS011;32542;52.832;13.816;2023-02-22T00:16:32;9.35;;;4.25;;
17253;SDS011;32542;52.832;13.816;2023-02-22T00:19:35;12.75;;;4.90;;
17253;SDS011;32542;52.832;13.816;2023-02-22T00:22:40;12.25;;;4.57;;
17253;SDS011;32542;52.832;13.816;2023-02-22T00:25:44;11.20;;;4.35;;
17253;SDS011;32542;52.832;13.816;2023-02-22T00:28:48;7.75;;;4.20;;
17253;SDS011;32542;52.832;13.816;2023-02-22T00:31:53;11.18;;;4.80;;
17253;SDS011;32542;52.832;13.816;2023-02-22T00:34:56;11.70;;;4.53;;
17253;SDS011;32542;52.832;13.816;2023-02-22T00:38:00;8.93;;;4.30;;
17253;SDS011;32542;52.832;13.816;2023-02-22T00:41:04;10.85;;;4.10;;
17253;SDS011;32542;52.832;13.816;2023-02-22T00:44:07;10.43;;;4.68;;
17253;SDS011;32542;52.832;13.816;2023-02-22T00:47:12;10.88;;;4.65;;
17253;SDS011;32542;52.832;13.816;2023-02-22T00:50:16;10.88;;;4.28;;
17253;SDS011;32542;52.832;13.816;2023-02-22T00:53:21;8.90;;;3.88;;
17253;SDS011;32542;52.832;13.816;2023-02-22T00:56:25;8.70;;;4.30;;
17253;SDS011;32542;52.832;13.816;2023-02-22T00:59:28;9.00;;;4.38;;
17253;SDS011;32542;52.832;13.816;2023-02-22T01:02:32;7.43;;;4.43;;
17253;SDS011;32542;52.832;13.816;2023-02-22T01:05:35;7.05;;;3.60;;
17253;SDS011;32542;52.832;13.816;2023-02-22T01:08:43;7.55;;;3.75;;
17253;SDS011;32542;52.832;13.816;2023-02-22T01:11:47;8.13;;;4.03;;
17253;SDS011;32542;52.832;13.816;2023-02-22T01:14:56;6.43;;;3.70;;
17253;SDS011;32542;52.832;13.816;2023-02-22T01:17:59;7.03;;;4.13;;
17253;SDS011;32542;52.832;13.816;2023-02-22T01:21:03;10.05;;;3.97;;
17253;SDS011;32542;52.832;13.816;2023-02-22T01:24:08;8.20;;;4.18;;
17253;SDS011;32542;52.832;13.816;2023-02-22T01:27:12;8.60;;;4.10;;
17253;SDS011;32542;52.832;13.816;2023-02-22T01:30:17;8.00;;;3.80;;
17253;SDS011;32542;52.832;13.816;2023-02-22T01:33:24;9.07;;;4.47;;
17253;SDS011;32542;52.832;13.816;2023-02-22T01:36:27;10.68;;;3.75;;
17253;SDS011;32542;52.832;13.816;2023-02-22T01:39:31;8.00;;;4.00;;
17253;SDS011;32542;52.832;13.816;2023-02-22T01:42:34;8.88;;;3.97;;
17253;SDS011;32542;52.832;13.816;2023-02-22T01:45:48;10.30;;;4.38;;
17253;SDS011;32542;52.832;13.816;2023-02-22T01:48:56;7.97;;;3.95;;
17253;SDS011;32542;52.832;13.816;2023-02-22T01:52:03;7.88;;;3.83;;
17253;SDS011;32542;52.832;13.816;2023-02-22T01:55:11;7.15;;;4.03;;
17253;SDS011;32542;52.832;13.816;2023-02-22T01:58:14;7.53;;;3.85;;
17253;SDS011;32542;52.832;13.816;2023-02-22T02:01:20;9.98;;;4.32;;
17253;SDS011;32542;52.832;13.816;2023-02-22T02:04:25;7.80;;;4.18;;
17253;SDS011;32542;52.832;13.816;2023-02-22T02:07:29;6.40;;;3.90;;
17253;SDS011;32542;52.832;13.816;2023-02-22T02:10:33;8.45;;;3.90;;
17253;SDS011;32542;52.832;13.816;2023-02-22T02:13:39;7.30;;;3.90;;
17253;SDS011;32542;52.832;13.816;2023-02-22T02:16:43;8.10;;;3.78;;
17253;SDS011;32542;52.832;13.816;2023-02-22T02:19:50;6.90;;;3.85;;
17253;SDS011;32542;52.832;13.816;2023-02-22T02:23:02;4.95;;;3.33;;
17253;SDS011;32542;52.832;13.816;2023-02-22T02:26:29;5.80;;;3.70;;
17253;SDS011;32542;52.832;13.816;2023-02-22T02:33:23;7.82;;;4.13;;
17253;SDS011;32542;52.832;13.816;2023-02-22T02:36:33;7.95;;;4.03;;
17253;SDS011;32542;52.832;13.816;2023-02-22T02:39:45;6.25;;;3.83;;
17253;SDS011;32542;52.832;13.816;2023-02-22T02:42:56;7.88;;;3.67;;
17253;SDS011;32542;52.832;13.816;2023-02-22T02:46:04;6.53;;;3.60;;
17253;SDS011;32542;52.832;13.816;2023-02-22T02:49:14;7.68;;;4.00;;
17253;SDS011;32542;52.832;13.816;2023-02-22T02:52:20;6.03;;;3.30;;
17253;SDS011;32542;52.832;13.816;2023-02-22T02:55:27;6.45;;;3.40;;
17253;SDS011;32542;52.832;13.816;2023-02-22T02:58:32;6.88;;;4.03;;
17253;SDS011;32542;52.832;13.816;2023-02-22T03:01:40;7.78;;;4.18;;
17253;SDS011;32542;52.832;13.816;2023-02-22T03:05:02;6.18;;;3.67;;
17253;SDS011;32542;52.832;13.816;2023-02-22T03:08:19;8.18;;;4.00;;
17253;SDS011;32542;52.832;13.816;2023-02-22T03:11:30;7.20;;;3.60;;
17253;SDS011;32542;52.832;13.816;2023-02-22T03:14:45;7.00;;;3.40;;
17253;SDS011;32542;52.832;13.816;2023-02-22T03:18:01;6.50;;;3.60;;
17253;SDS011;32542;52.832;13.816;2023-02-22T03:21:10;5.95;;;3.60;;
17253;SDS011;32542;52.832;13.816;2023-02-22T03:24:24;9.73;;;3.92;;
17253;SDS011;32542;52.832;13.816;2023-02-22T03:27:33;6.07;;;3.58;;
17253;SDS011;32542;52.832;13.816;2023-02-22T03:30:46;6.45;;;3.58;;
17253;SDS011;32542;52.832;13.816;2023-02-22T03:33:53;5.18;;;3.45;;
17253;SDS011;32542;52.832;13.816;2023-02-22T03:37:06;7.82;;;3.78;;
17253;SDS011;32542;52.832;13.816;2023-02-22T03:40:17;6.22;;;3.40;;
17253;SDS011;32542;52.832;13.816;2023-02-22T03:43:31;7.65;;;3.80;;
17253;SDS011;32542;52.832;13.816;2023-02-22T03:46:41;6.72;;;3.83;;
17253;SDS011;32542;52.832;13.816;2023-02-22T03:49:48;8.30;;;3.88;;
17253;SDS011;32542;52.832;13.816;2023-02-22T03:52:57;7.03;;;3.90;;
17253;SDS011;32542;52.832;13.816;2023-02-22T03:56:02;7.30;;;3.85;;
17253;SDS011;32542;52.832;13.816;2023-02-22T03:59:11;6.45;;;3.97;;
17253;SDS011;32542;52.832;13.816;2023-02-22T04:02:15;7.55;;;3.65;;
17253;SDS011;32542;52.832;13.816;2023-02-22T04:05:19;5.70;;;3.55;;
17253;SDS011;32542;52.832;13.816;2023-02-22T04:08:26;6.28;;;3.53;;
17253;SDS011;32542;52.832;13.816;2023-02-22T04:11:30;8.73;;;3.40;;
17253;SDS011;32542;52.832;13.816;2023-02-22T04:14:33;6.25;;;3.60;;
17253;SDS011;32542;52.832;13.816;2023-02-22T04:17:36;6.88;;;3.72;;
17253;SDS011;32542;52.832;13.816;2023-02-22T04:20:42;6.85;;;3.80;;
17253;SDS011;32542;52.832;13.816;2023-02-22T04:23:55;9.20;;;4.43;;
17253;SDS011;32542;52.832;13.816;2023-02-22T04:26:58;9.00;;;3.70;;
17253;SDS011;32542;52.832;13.816;2023-02-22T04:30:03;7.03;;;3.70;;
17253;SDS011;32542;52.832;13.816;2023-02-22T04:33:08;6.78;;;3.22;;
17253;SDS011;32542;52.832;13.816;2023-02-22T04:36:12;8.02;;;3.75;;
17253;SDS011;32542;52.832;13.816;2023-02-22T04:39:19;8.52;;;4.00;;
17253;SDS011;32542;52.832;13.816;2023-02-22T04:42:24;11.30;;;4.07;;
17253;SDS011;32542;52.832;13.816;2023-02-22T04:45:28;8.82;;;3.80;;
17253;SDS011;32542;52.832;13.816;2023-02-22T04:48:32;8.48;;;3.67;;
17253;SDS011;32542;52.832;13.816;2023-02-22T04:51:35;6.90;;;3.78;;
17253;SDS011;32542;52.832;13.816;2023-02-22T04:54:45;7.03;;;3.55;;
17253;SDS011;32542;52.832;13.816;2023-02-22T04:57:48;9.88;;;4.10;;
17253;SDS011;32542;52.832;13.816;2023-02-22T05:00:51;9.05;;;3.92;;
17253;SDS011;32542;52.832;13.816;2023-02-22T05:03:54;7.18;;;3.47;;
17253;SDS011;32542;52.832;13.816;2023-02-22T05:06:57;8.70;;;3.60;;
17253;SDS011;32542;52.832;13.816;2023-02-22T05:10:02;8.80;;;3.58;;
17253;SDS011;32542;52.832;13.816;2023-02-22T05:13:05;9.73;;;3.80;;
17253;SDS011;32542;52.832;13.816;2023-02-22T05:16:09;8.85;;;3.95;;
17253;SDS011;32542;52.832;13.816;2023-02-22T05:19:12;7.38;;;3.60;;
17253;SDS011;32542;52.832;13.816;2023-02-22T05:22:16;10.98;;;3.53;;
17253;SDS011;32542;52.832;13.816;2023-02-22T05:25:20;12.05;;;4.00;;
17253;SDS011;32542;52.832;13.816;2023-02-22T05:28:23;8.13;;;3.10;;
17253;SDS011;32542;52.832;13.816;2023-02-22T05:31:27;6.72;;;3.13;;
17253;SDS011;32542;52.832;13.816;2023-02-22T05:34:30;7.72;;;3.47;;
17253;SDS011;32542;52.832;13.816;2023-02-22T05:37:34;6.50;;;3.55;;
17253;SDS011;32542;52.832;13.816;2023-02-22T05:40:39;5.93;;;3.08;;
17253;SDS011;32542;52.832;13.816;2023-02-22T05:43:42;8.15;;;3.65;;
17253;SDS011;32542;52.832;13.816;2023-02-22T05:46:46;7.95;;;3.78;;
17253;SDS011;32542;52.832;13.816;2023-02-22T05:49:49;9.60;;;3.70;;
17253;SDS011;32542;52.832;13.816;2023-02-22T05:52:52;8.25;;;3.65;;
17253;SDS011;32542;52.832;13.816;2023-02-22T05:55:57;7.93;;;3.67;;
17253;SDS011;32542;52.832;13.816;2023-02-22T05:59:00;7.22;;;3.70;;
17253;SDS011;32542;52.832;13.816;2023-02-22T06:02:03;9.45;;;3.63;;
17253;SDS011;32542;52.832;13.816;2023-02-22T06:05:07;8.57;;;3.75;;
17253;SDS011;32542;52.832;13.816;2023-02-22T06:08:10;6.55;;;3.38;;
17253;SDS011;32542;52.832;13.816;2023-02-22T06:11:14;9.25;;;3.72;;
17253;SDS011;32542;52.832;13.816;2023-02-22T06:14:18;7.88;;;3.30;;
17253;SDS011;32542;52.832;13.816;2023-02-22T06:17:21;9.05;;;2.92;;
17253;SDS011;32542;52.832;13.816;2023-02-22T06:20:25;8.98;;;3.42;;
17253;SDS011;32542;52.832;13.816;2023-02-22T06:23:29;8.02;;;3.70;;
17253;SDS011;32542;52.832;13.816;2023-02-22T06:26:33;7.38;;;3.53;;
17253;SDS011;32542;52.832;13.816;2023-02-22T06:29:36;6.88;;;3.47;;
17253;SDS011;32542;52.832;13.816;2023-02-22T06:32:39;5.90;;;3.20;;
17253;SDS011;32542;52.832;13.816;2023-02-22T06:35:43;7.80;;;3.42;;
17253;SDS011;32542;52.832;13.816;2023-02-22T06:38:47;5.78;;;3.10;;
17253;SDS011;32542;52.832;13.816;2023-02-22T06:41:51;6.85;;;3.20;;
17253;SDS011;32542;52.832;13.816;2023-02-22T06:44:56;8.48;;;3.30;;
17253;SDS011;32542;52.832;13.816;2023-02-22T06:47:59;7.53;;;3.38;;
17253;SDS011;32542;52.832;13.816;2023-02-22T06:51:03;5.53;;;2.65;;
17253;SDS011;32542;52.832;13.816;2023-02-22T06:54:08;7.47;;;3.35;;
17253;SDS011;32542;52.832;13.816;2023-02-22T06:57:13;8.35;;;3.30;;
17253;SDS011;32542;52.832;13.816;2023-02-22T07:00:17;7.65;;;3.50;;
17253;SDS011;32542;52.832;13.816;2023-02-22T07:03:21;7.57;;;3.15;;
17253;SDS011;32542;52.832;13.816;2023-02-22T07:06:24;5.82;;;2.90;;
17253;SDS011;32542;52.832;13.816;2023-02-22T07:09:27;5.68;;;3.30;;
17253;SDS011;32542;52.832;13.816;2023-02-22T07:12:31;6.03;;;3.38;;
17253;SDS011;32542;52.832;13.816;2023-02-22T07:15:35;7.75;;;3.38;;
17253;SDS011;32542;52.832;13.816;2023-02-22T07:18:38;8.52;;;3.40;;
17253;SDS011;32542;52.832;13.816;2023-02-22T07:21:41;7.28;;;3.78;;
17253;SDS011;32542;52.832;13.816;2023-02-22T07:24:44;8.18;;;3.33;;
17253;SDS011;32542;52.832;13.816;2023-02-22T07:27:49;6.95;;;3.10;;
17253;SDS011;32542;52.832;13.816;2023-02-22T07:30:53;9.25;;;3.30;;
17253;SDS011;32542;52.832;13.816;2023-02-22T07:33:56;14.90;;;4.47;;
17253;SDS011;32542;52.832;13.816;2023-02-22T07:37:00;17.55;;;4.07;;
17253;SDS011;32542;52.832;13.816;2023-02-22T07:40:03;11.80;;;3.75;;
17253;SDS011;32542;52.832;13.816;2023-02-22T07:43:13;11.38;;;3.95;;
17253;SDS011;32542;52.832;13.816;2023-02-22T07:46:19;11.30;;;4.03;;
17253;SDS011;32542;52.832;13.816;2023-02-22T07:49:22;12.43;;;3.95;;
17253;SDS011;32542;52.832;13.816;2023-02-22T07:52:25;10.77;;;3.25;;
17253;SDS011;32542;52.832;13.816;2023-02-22T07:55:29;14.73;;;3.55;;
17253;SDS011;32542;52.832;13.816;2023-02-22T07:58:34;8.88;;;3.50;;
17253;SDS011;32542;52.832;13.816;2023-02-22T08:01:37;8.93;;;3.92;;
17253;SDS011;32542;52.832;13.816;2023-02-22T08:04:40;10.88;;;2.95;;
17253;SDS011;32542;52.832;13.816;2023-02-22T08:07:44;7.47;;;3.53;;
17253;SDS011;32542;52.832;13.816;2023-02-22T08:10:47;8.82;;;3.60;;
17253;SDS011;32542;52.832;13.816;2023-02-22T08:13:53;9.82;;;3.30;;
17253;SDS011;32542;52.832;13.816;2023-02-22T08:16:56;9.77;;;2.97;;
17253;SDS011;32542;52.832;13.816;2023-02-22T08:19:59;9.20;;;3.28;;
17253;SDS011;32542;52.832;13.816;2023-02-22T08:23:04;9.35;;;3.35;;
17253;SDS011;32542;52.832;13.816;2023-02-22T08:26:09;8.88;;;3.78;;
17253;SDS011;32542;52.832;13.816;2023-02-22T08:29:17;7.80;;;3.35;;
17253;SDS011;32542;52.832;13.816;2023-02-22T08:32:20;9.82;;;3.40;;
17253;SDS011;32542;52.832;13.816;2023-02-22T08:35:24;8.75;;;3.65;;
17253;SDS011;32542;52.832;13.816;2023-02-22T08:38:29;8.80;;;3.30;;
17253;SDS011;32542;52.832;13.816;2023-02-22T08:41:33;7.43;;;3.65;;
17253;SDS011;32542;52.832;13.816;2023-02-22T08:44:37;10.48;;;3.35;;
17253;SDS011;32542;52.832;13.816;2023-02-22T08:47:41;10.10;;;3.38;;
17253;SDS011;32542;52.832;13.816;2023-02-22T08:50:44;13.30;;;3.40;;
17253;SDS011;32542;52.832;13.816;2023-02-22T08:53:47;12.98;;;3.30;;
17253;SDS011;32542;52.832;13.816;2023-02-22T08:56:50;10.48;;;3.30;;
17253;SDS011;32542;52.832;13.816;2023-02-22T08:59:54;9.90;;;3.67;;
17253;SDS011;32542;52.832;13.816;2023-02-22T09:02:57;7.50;;;3.38;;
17253;SDS011;32542;52.832;13.816;2023-02-22T09:06:01;10.70;;;3.72;;
17253;SDS011;32542;52.832;13.816;2023-02-22T09:09:05;9.60;;;3.72;;
17253;SDS011;32542;52.832;13.816;2023-02-22T09:12:08;13.02;;;3.63;;
17253;SDS011;32542;52.832;13.816;2023-02-22T09:15:13;11.55;;;3.70;;
17253;SDS011;32542;52.832;13.816;2023-02-22T09:18:16;13.10;;;3.58;;
17253;SDS011;32542;52.832;13.816;2023-02-22T09:21:21;12.13;;;3.85;;
17253;SDS011;32542;52.832;13.816;2023-02-22T09:24:24;17.98;;;4.55;;
17253;SDS011;32542;52.832;13.816;2023-02-22T09:27:28;18.55;;;4.20;;
17253;SDS011;32542;52.832;13.816;2023-02-22T09:30:33;29.63;;;4.70;;
17253;SDS011;32542;52.832;13.816;2023-02-22T09:33:37;18.38;;;4.40;;
17253;SDS011;32542;52.832;13.816;2023-02-22T09:36:42;15.75;;;4.70;;
17253;SDS011;32542;52.832;13.816;2023-02-22T09:39:47;20.38;;;5.00;;
17253;SDS011;32542;52.832;13.816;2023-02-22T09:42:54;25.35;;;5.10;;
17253;SDS011;32542;52.832;13.816;2023-02-22T09:46:07;20.10;;;4.75;;
17253;SDS011;32542;52.832;13.816;2023-02-22T09:49:20;14.40;;;4.20;;
17253;SDS011;32542;52.832;13.816;2023-02-22T09:52:26;17.38;;;4.22;;
17253;SDS011;32542;52.832;13.816;2023-02-22T09:55:33;16.40;;;4.30;;
17253;SDS011;32542;52.832;13.816;2023-02-22T09:58:40;17.33;;;4.43;;
17253;SDS011;32542;52.832;13.816;2023-02-22T10:01:48;14.77;;;3.67;;
17253;SDS011;32542;52.832;13.816;2023-02-22T10:04:59;14.80;;;4.40;;
17253;SDS011;32542;52.832;13.816;2023-02-22T10:08:09;19.00;;;5.15;;
17253;SDS011;32542;52.832;13.816;2023-02-22T10:11:15;18.00;;;4.43;;
17253;SDS011;32542;52.832;13.816;2023-02-22T10:14:42;13.90;;;4.30;;
17253;SDS011;32542;52.832;13.816;2023-02-22T10:18:16;13.85;;;3.92;;
17253;SDS011;32542;52.832;13.816;2023-02-22T10:21:44;10.85;;;4.05;;
17253;SDS011;32542;52.832;13.816;2023-02-22T10:24:56;15.73;;;4.13;;
17253;SDS011;32542;52.832;13.816;2023-02-22T10:28:04;10.55;;;3.85;;
17253;SDS011;32542;52.832;13.816;2023-02-22T10:31:17;14.27;;;4.55;;
17253;SDS011;32542;52.832;13.816;2023-02-22T10:34:25;12.02;;;3.72;;
17253;SDS011;32542;52.832;13.816;2023-02-22T10:37:30;11.88;;;4.03;;
17253;SDS011;32542;52.832;13.816;2023-02-22T10:40:34;18.50;;;4.13;;
17253;SDS011;32542;52.832;13.816;2023-02-22T10:43:39;11.80;;;4.03;;
17253;SDS011;32542;52.832;13.816;2023-02-22T10:46:44;13.23;;;4.32;;
17253;SDS011;32542;52.832;13.816;2023-02-22T10:49:50;11.65;;;3.92;;
17253;SDS011;32542;52.832;13.816;2023-02-22T10:52:56;14.55;;;4.43;;
17253;SDS011;32542;52.832;13.816;2023-02-22T10:56:11;15.32;;;3.97;;
17253;SDS011;32542;52.832;13.816;2023-02-22T10:59:25;14.07;;;3.63;;
17253;SDS011;32542;52.832;13.816;2023-02-22T11:02:30;12.00;;;3.72;;
17253;SDS011;32542;52.832;13.816;2023-02-22T11:05:37;10.80;;;4.35;;
17253;SDS011;32542;52.832;13.816;2023-02-22T11:08:41;12.05;;;4.68;;
17253;SDS011;32542;52.832;13.816;2023-02-22T11:11:47;13.20;;;4.10;;
17253;SDS011;32542;52.832;13.816;2023-02-22T11:14:51;12.05;;;4.60;;
17253;SDS011;32542;52.832;13.816;2023-02-22T11:17:55;13.52;;;4.15;;
17253;SDS011;32542;52.832;13.816;2023-02-22T11:21:04;12.93;;;4.47;;
17253;SDS011;32542;52.832;13.816;2023-02-22T11:24:11;10.93;;;4.18;;
17253;SDS011;32542;52.832;13.816;2023-02-22T11:27:21;10.18;;;4.47;;
17253;SDS011;32542;52.832;13.816;2023-02-22T11:30:29;12.52;;;4.05;;
17253;SDS011;32542;52.832;13.816;2023-02-22T11:33:35;9.90;;;3.83;;
17253;SDS011;32542;52.832;13.816;2023-02-22T11:36:41;9.05;;;3.85;;
17253;SDS011;32542;52.832;13.816;2023-02-22T11:39:44;9.00;;;3.92;;
17253;SDS011;32542;52.832;13.816;2023-02-22T11:42:48;12.73;;;4.03;;
17253;SDS011;32542;52.832;13.816;2023-02-22T11:46:10;8.07;;;3.78;;
17253;SDS011;32542;52.832;13.816;2023-02-22T11:49:15;9.52;;;3.50;;
17253;SDS011;32542;52.832;13.816;2023-02-22T11:52:22;8.15;;;3.47;;
17253;SDS011;32542;52.832;13.816;2023-02-22T11:55:31;10.05;;;3.88;;
17253;SDS011;32542;52.832;13.816;2023-02-22T11:58:45;13.00;;;3.95;;
17253;SDS011;32542;52.832;13.816;2023-02-22T12:01:53;7.18;;;3.70;;
17253;SDS011;32542;52.832;13.816;2023-02-22T12:05:05;10.70;;;3.97;;
17253;SDS011;32542;52.832;13.816;2023-02-22T12:08:27;9.35;;;3.47;;
17253;SDS011;32542;52.832;13.816;2023-02-22T12:11:38;9.85;;;4.28;;
17253;SDS011;32542;52.832;13.816;2023-02-22T12:14:53;11.98;;;4.55;;
17253;SDS011;32542;52.832;13.816;2023-02-22T12:18:15;10.13;;;3.75;;
17253;SDS011;32542;52.832;13.816;2023-02-22T12:21:23;8.40;;;3.00;;
17253;SDS011;32542;52.832;13.816;2023-02-22T12:24:33;9.02;;;3.80;;
17253;SDS011;32542;52.832;13.816;2023-02-22T12:27:42;7.03;;;3.28;;
17253;SDS011;32542;52.832;13.816;2023-02-22T12:30:50;10.93;;;3.63;;
17253;SDS011;32542;52.832;13.816;2023-02-22T12:33:59;6.82;;;3.40;;
17253;SDS011;32542;52.832;13.816;2023-02-22T12:37:11;9.27;;;3.65;;
17253;SDS011;32542;52.832;13.816;2023-02-22T12:40:23;9.00;;;3.40;;
17253;SDS011;32542;52.832;13.816;2023-02-22T12:43:32;9.45;;;3.75;;
17253;SDS011;32542;52.832;13.816;2023-02-22T12:46:42;7.03;;;3.55;;
17253;SDS011;32542;52.832;13.816;2023-02-22T12:49:51;8.98;;;3.38;;
17253;SDS011;32542;52.832;13.816;2023-02-22T12:53:01;8.13;;;3.67;;
17253;SDS011;32542;52.832;13.816;2023-02-22T12:56:17;9.40;;;3.67;;
17253;SDS011;32542;52.832;13.816;2023-02-22T12:59:28;8.50;;;3.65;;
17253;SDS011;32542;52.832;13.816;2023-02-22T13:02:35;11.02;;;3.22;;
17253;SDS011;32542;52.832;13.816;2023-02-22T13:05:44;9.48;;;3.65;;
17253;SDS011;32542;52.832;13.816;2023-02-22T13:08:58;9.35;;;3.28;;
17253;SDS011;32542;52.832;13.816;2023-02-22T13:12:12;7.72;;;3.33;;
17253;SDS011;32542;52.832;13.816;2023-02-22T13:15:21;6.75;;;3.22;;
17253;SDS011;32542;52.832;13.816;2023-02-22T13:18:31;7.18;;;3.63;;
17253;SDS011;32542;52.832;13.816;2023-02-22T13:21:43;8.95;;;3.30;;
17253;SDS011;32542;52.832;13.816;2023-02-22T13:28:17;7.32;;;3.22;;
17253;SDS011;32542;52.832;13.816;2023-02-22T13:31:31;9.23;;;3.53;;
17253;SDS011;32542;52.832;13.816;2023-02-22T13:34:50;7.22;;;3.35;;
17253;SDS011;32542;52.832;13.816;2023-02-22T13:38:10;7.93;;;3.50;;
17253;SDS011;32542;52.832;13.816;2023-02-22T13:41:44;9.45;;;3.20;;
17253;SDS011;32542;52.832;13.816;2023-02-22T13:45:28;8.07;;;3.33;;
17253;SDS011;32542;52.832;13.816;2023-02-22T13:49:08;10.38;;;3.22;;
17253;SDS011;32542;52.832;13.816;2023-02-22T13:52:36;10.07;;;3.38;;
17253;SDS011;32542;52.832;13.816;2023-02-22T13:55:42;9.35;;;3.50;;
17253;SDS011;32542;52.832;13.816;2023-02-22T13:58:50;6.57;;;2.90;;
17253;SDS011;32542;52.832;13.816;2023-02-22T14:01:57;8.48;;;2.85;;
17253;SDS011;32542;52.832;13.816;2023-02-22T14:08:51;6.80;;;2.92;;
17253;SDS011;32542;52.832;13.816;2023-02-22T14:11:54;5.75;;;2.72;;
17253;SDS011;32542;52.832;13.816;2023-02-22T14:15:11;6.32;;;2.83;;
17253;SDS011;32542;52.832;13.816;2023-02-22T14:18:33;6.45;;;2.72;;
17253;SDS011;32542;52.832;13.816;2023-02-22T14:21:53;7.80;;;3.17;;
17253;SDS011;32542;52.832;13.816;2023-02-22T14:24:58;7.72;;;3.17;;
17253;SDS011;32542;52.832;13.816;2023-02-22T14:28:01;7.30;;;3.08;;
17253;SDS011;32542;52.832;13.816;2023-02-22T14:31:07;6.80;;;3.33;;
17253;SDS011;32542;52.832;13.816;2023-02-22T14:34:21;7.03;;;3.00;;
17253;SDS011;32542;52.832;13.816;2023-02-22T14:37:42;6.63;;;3.08;;
17253;SDS011;32542;52.832;13.816;2023-02-22T14:40:50;5.72;;;2.80;;
17253;SDS011;32542;52.832;13.816;2023-02-22T14:43:55;5.80;;;2.72;;
17253;SDS011;32542;52.832;13.816;2023-02-22T14:47:05;5.63;;;2.83;;
17253;SDS011;32542;52.832;13.816;2023-02-22T14:50:13;6.45;;;2.97;;
17253;SDS011;32542;52.832;13.816;2023-02-22T14:53:25;8.30;;;2.78;;
17253;SDS011;32542;52.832;13.816;2023-02-22T14:56:32;9.35;;;3.47;;
17253;SDS011;32542;52.832;13.816;2023-02-22T14:59:50;7.45;;;2.60;;
17253;SDS011;32542;52.832;13.816;2023-02-22T15:03:03;6.53;;;2.90;;
17253;SDS011;32542;52.832;13.816;2023-02-22T15:06:11;5.22;;;2.55;;
17253;SDS011;32542;52.832;13.816;2023-02-22T15:09:18;7.93;;;2.97;;
17253;SDS011;32542;52.832;13.816;2023-02-22T15:12:29;6.63;;;2.80;;
17253;SDS011;32542;52.832;13.816;2023-02-22T15:15:32;5.53;;;2.47;;
17253;SDS011;32542;52.832;13.816;2023-02-22T15:18:37;7.72;;;3.00;;
17253;SDS011;32542;52.832;13.816;2023-02-22T15:21:44;7.45;;;3.00;;
17253;SDS011;32542;52.832;13.816;2023-02-22T15:24:55;6.63;;;3.10;;
17253;SDS011;32542;52.832;13.816;2023-02-22T15:28:01;7.45;;;2.72;;
17253;SDS011;32542;52.832;13.816;2023-02-22T15:31:22;5.53;;;2.70;;
17253;SDS011;32542;52.832;13.816;2023-02-22T15:34:29;7.60;;;3.15;;
17253;SDS011;32542;52.832;13.816;2023-02-22T15:37:34;7.03;;;2.63;;
17253;SDS011;32542;52.832;13.816;2023-02-22T15:40:38;5.97;;;2.95;;
17253;SDS011;32542;52.832;13.816;2023-02-22T15:43:43;7.13;;;2.90;;
17253;SDS011;32542;52.832;13.816;2023-02-22T15:46:46;5.80;;;2.45;;
17253;SDS011;32542;52.832;13.816;2023-02-22T15:53:26;4.65;;;2.50;;
17253;SDS011;32542;52.832;13.816;2023-02-22T15:56:32;4.47;;;1.98;;
17253;SDS011;32542;52.832;13.816;2023-02-22T15:59:39;7.22;;;2.78;;
17253;SDS011;32542;52.832;13.816;2023-02-22T16:02:45;8.85;;;2.80;;
17253;SDS011;32542;52.832;13.816;2023-02-22T16:05:50;7.88;;;2.90;;
17253;SDS011;32542;52.832;13.816;2023-02-22T16:08:57;7.00;;;2.63;;
17253;SDS011;32542;52.832;13.816;2023-02-22T16:12:06;9.02;;;2.75;;
17253;SDS011;32542;52.832;13.816;2023-02-22T16:15:14;13.32;;;3.20;;
17253;SDS011;32542;52.832;13.816;2023-02-22T16:18:23;6.57;;;2.75;;
17253;SDS011;32542;52.832;13.816;2023-02-22T16:21:28;7.43;;;3.08;;
17253;SDS011;32542;52.832;13.816;2023-02-22T16:24:57;11.25;;;2.83;;
17253;SDS011;32542;52.832;13.816;2023-02-22T16:28:24;13.55;;;3.13;;
17253;SDS011;32542;52.832;13.816;2023-02-22T16:31:29;9.75;;;3.08;;
17253;SDS011;32542;52.832;13.816;2023-02-22T16:34:34;11.40;;;2.75;;
17253;SDS011;32542;52.832;13.816;2023-02-22T16:37:37;12.65;;;3.00;;
17253;SDS011;32542;52.832;13.816;2023-02-22T16:40:44;14.88;;;3.00;;
17253;SDS011;32542;52.832;13.816;2023-02-22T16:43:50;11.98;;;2.63;;
17253;SDS011;32542;52.832;13.816;2023-02-22T16:46:56;11.43;;;3.33;;
17253;SDS011;32542;52.832;13.816;2023-02-22T16:50:01;7.05;;;3.20;;
17253;SDS011;32542;52.832;13.816;2023-02-22T16:53:04;8.65;;;2.58;;
17253;SDS011;32542;52.832;13.816;2023-02-22T16:56:09;8.18;;;2.33;;
17253;SDS011;32542;52.832;13.816;2023-02-22T16:59:16;9.60;;;2.80;;
17253;SDS011;32542;52.832;13.816;2023-02-22T17:02:20;10.75;;;3.50;;
17253;SDS011;32542;52.832;13.816;2023-02-22T17:05:23;13.60;;;2.90;;
17253;SDS011;32542;52.832;13.816;2023-02-22T17:08:26;5.97;;;2.42;;
17253;SDS011;32542;52.832;13.816;2023-02-22T17:11:31;8.75;;;2.78;;
17253;SDS011;32542;52.832;13.816;2023-02-22T17:14:35;10.30;;;2.83;;
17253;SDS011;32542;52.832;13.816;2023-02-22T17:17:38;10.70;;;2.67;;
17253;SDS011;32542;52.832;13.816;2023-02-22T17:20:41;13.20;;;3.22;;
17253;SDS011;32542;52.832;13.816;2023-02-22T17:23:45;9.45;;;2.80;;
17253;SDS011;32542;52.832;13.816;2023-02-22T17:26:50;9.27;;;2.85;;
17253;SDS011;32542;52.832;13.816;2023-02-22T17:29:53;6.47;;;2.38;;
17253;SDS011;32542;52.832;13.816;2023-02-22T17:32:56;6.28;;;2.60;;
17253;SDS011;32542;52.832;13.816;2023-02-22T17:36:04;8.38;;;2.28;;
17253;SDS011;32542;52.832;13.816;2023-02-22T17:39:07;10.32;;;2.83;;
17253;SDS011;32542;52.832;13.816;2023-02-22T17:42:12;6.85;;;3.03;;
17253;SDS011;32542;52.832;13.816;2023-02-22T17:45:15;7.65;;;2.47;;
17253;SDS011;32542;52.832;13.816;2023-02-22T17:48:18;8.38;;;3.25;;
17253;SDS011;32542;52.832;13.816;2023-02-22T17:51:24;6.82;;;2.50;;
17253;SDS011;32542;52.832;13.816;2023-02-22T17:54:27;8.52;;;3.22;;
17253;SDS011;32542;52.832;13.816;2023-02-22T17:57:32;7.80;;;2.55;;
17253;SDS011;32542;52.832;13.816;2023-02-22T18:00:36;7.68;;;3.38;;
17253;SDS011;32542;52.832;13.816;2023-02-22T18:03:39;9.32;;;2.80;;
17253;SDS011;32542;52.832;13.816;2023-02-22T18:06:42;6.05;;;2.13;;
17253;SDS011;32542;52.832;13.816;2023-02-22T18:09:46;6.63;;;2.67;;
17253;SDS011;32542;52.832;13.816;2023-02-22T18:12:51;6.97;;;3.13;;
17253;SDS011;32542;52.832;13.816;2023-02-22T18:15:56;8.05;;;2.80;;
17253;SDS011;32542;52.832;13.816;2023-02-22T18:19:00;9.10;;;2.60;;
17253;SDS011;32542;52.832;13.816;2023-02-22T18:22:03;5.13;;;2.40;;
17253;SDS011;32542;52.832;13.816;2023-02-22T18:25:08;6.38;;;2.50;;
17253;SDS011;32542;52.832;13.816;2023-02-22T18:28:15;8.15;;;2.60;;
17253;SDS011;32542;52.832;13.816;2023-02-22T18:31:21;4.57;;;2.40;;
17253;SDS011;32542;52.832;13.816;2023-02-22T18:34:25;7.10;;;2.70;;
17253;SDS011;32542;52.832;13.816;2023-02-22T18:37:28;5.75;;;2.55;;
17253;SDS011;32542;52.832;13.816;2023-02-22T18:40:31;7.95;;;2.90;;